Time;durP1;ratioP1;P1;durP2;ratioP2;P2;SDS_P1;SDS_P2;PMS_P1;PMS_P2;Temp;Humidity;BMP_temperature;BMP_pressure;BME280_temperature;BME280_humidity;BME280_pressure;Samples;Min_cycle;Max_cycle;Signal;HPM_P1;HPM_P2
2023/01/09 00:01:30;;;;;;;9.10;1.83;;;;;;;-145.18;100.00;46719.00;6151761;23;20002;-75
2023/01/09 00:03:56;;;;;;;7.37;1.70;;;;;;;-145.18;100.00;46720.94;6151129;23;20004;-75
2023/01/09 00:06:21;;;;;;;8.77;1.37;;;;;;;-145.18;100.00;46719.00;6151841;23;20236;-75
2023/01/09 00:08:47;;;;;;;5.03;1.70;;;;;;;-145.18;100.00;46720.94;6149809;23;20092;-76
2023/01/09 00:11:12;;;;;;;3.33;0.93;;;;;;;-145.18;100.00;46722.91;6151765;23;20001;-75
2023/01/09 00:13:38;;;;;;;9.30;1.77;;;;;;;-145.18;100.00;46722.91;6152656;23;20005;-75
2023/01/09 00:16:05;;;;;;;3.57;1.40;;;;;;;-145.18;100.00;46722.91;6153386;23;20009;-75
2023/01/09 00:18:30;;;;;;;4.33;1.53;;;;;;;-145.18;100.00;46720.94;6153454;23;20428;-75
2023/01/09 00:21:02;;;;;;;5.93;1.80;;;;;;;-145.18;100.00;46724.84;6153254;23;20252;-75
2023/01/09 00:23:28;;;;;;;5.37;1.77;;;;;;;-145.18;100.00;46722.91;6153314;23;20458;-75
2023/01/09 00:26:04;;;;;;;5.17;1.70;;;;;;;-145.18;100.00;46719.00;6151794;23;20228;-75
2023/01/09 00:28:30;;;;;;;6.13;1.67;;;;;;;-145.18;100.00;46720.94;6153763;23;20041;-74
2023/01/09 00:30:57;;;;;;;4.67;1.70;;;;;;;-145.18;100.00;46717.03;6153439;23;20236;-74
2023/01/09 00:33:32;;;;;;;3.70;1.57;;;;;;;-145.18;100.00;46719.00;6152958;23;20010;-74
2023/01/09 00:35:58;;;;;;;7.60;1.87;;;;;;;-145.18;100.00;46720.94;6153219;23;20696;-74
2023/01/09 00:38:23;;;;;;;9.77;2.67;;;;;;;-145.18;100.00;46717.03;6153193;23;20251;-74
2023/01/09 00:40:49;;;;;;;7.03;2.10;;;;;;;-145.18;100.00;46720.94;6153331;23;20017;-74
2023/01/09 00:43:15;;;;;;;10.30;3.40;;;;;;;-145.18;100.00;46713.13;6153134;23;20009;-74
2023/01/09 00:45:40;;;;;;;6.93;2.37;;;;;;;-145.18;100.00;46717.03;6153337;23;20010;-74
2023/01/09 00:48:10;;;;;;;4.37;1.50;;;;;;;-145.18;100.00;46720.94;6152909;23;20379;-74
2023/01/09 00:50:36;;;;;;;9.63;2.27;;;;;;;-145.18;100.00;46722.91;6153669;23;20063;-74
2023/01/09 00:53:08;;;;;;;5.17;2.37;;;;;;;-145.18;100.00;46717.03;6152802;23;20290;-74
2023/01/09 00:55:36;;;;;;;8.50;2.77;;;;;;;-145.18;100.00;46717.03;6153439;23;20752;-74
2023/01/09 00:58:01;;;;;;;4.90;2.00;;;;;;;-145.18;100.00;46717.03;6152588;23;20251;-74
2023/01/09 01:00:27;;;;;;;4.27;2.30;;;;;;;-145.18;100.00;46715.09;6153206;23;20239;-74
2023/01/09 01:02:52;;;;;;;7.23;2.57;;;;;;;-145.18;100.00;46709.22;6152936;23;20014;-75
2023/01/09 01:08:02;;;;;;;3.87;2.90;;;;;;;-145.18;100.00;46713.13;6152786;23;20068;-74
2023/01/09 01:10:27;;;;;;;7.97;3.20;;;;;;;-145.18;100.00;46713.13;6153071;23;20232;-74
2023/01/09 01:12:53;;;;;;;7.03;3.93;;;;;;;-145.18;100.00;46715.09;6152657;23;20040;-75
2023/01/09 01:15:19;;;;;;;4.80;2.67;;;;;;;-145.18;100.00;46713.13;6152949;23;20005;-75
2023/01/09 01:17:45;;;;;;;4.73;2.60;;;;;;;-145.18;100.00;46715.09;6153003;23;20017;-75
2023/01/09 01:20:14;;;;;;;8.27;3.00;;;;;;;-145.18;100.00;46699.47;6152459;23;20577;-75
2023/01/09 01:22:43;;;;;;;8.50;3.00;;;;;;;-145.18;100.00;46707.28;6153003;23;20009;-75
2023/01/09 01:25:10;;;;;;;6.43;3.07;;;;;;;-145.18;100.00;46699.47;6152661;23;20227;-75
2023/01/09 01:27:36;;;;;;;8.13;3.60;;;;;;;-145.18;100.00;46699.47;6152814;23;20238;-74
2023/01/09 01:30:02;;;;;;;5.47;3.00;;;;;;;-145.18;100.00;46697.50;6152456;23;20315;-75
2023/01/09 01:32:27;;;;;;;8.07;4.10;;;;;;;-145.18;100.00;46691.66;6153142;23;20498;-75
2023/01/09 01:34:52;;;;;;;8.00;3.13;;;;;;;-145.18;100.00;46699.47;6152279;23;20033;-75
2023/01/09 01:37:18;;;;;;;7.73;4.03;;;;;;;-145.18;100.00;46691.66;6152783;23;20005;-75
2023/01/09 01:39:43;;;;;;;8.80;3.03;;;;;;;-145.18;100.00;46695.56;6151086;23;20010;-75
2023/01/09 01:42:11;;;;;;;8.27;3.00;;;;;;;-145.18;100.00;46697.50;6152482;23;20459;-75
2023/01/09 01:44:58;;;;;;;3.93;2.50;;;;;;;-145.18;100.00;46693.59;6152761;23;20005;-75
2023/01/09 01:47:36;;;;;;;6.77;2.73;;;;;;;-145.18;100.00;46687.75;6152842;23;20219;-75
2023/01/09 01:50:08;;;;;;;4.93;2.40;;;;;;;-145.18;100.00;46699.47;6152215;23;20704;-75
2023/01/09 01:52:36;;;;;;;4.57;2.67;;;;;;;-145.18;100.00;46699.47;6152735;23;20224;-75
2023/01/09 01:55:03;;;;;;;5.83;2.77;;;;;;;-145.18;100.00;46701.41;6152322;23;20704;-75
2023/01/09 01:57:30;;;;;;;10.30;3.23;;;;;;;-145.18;100.00;46695.56;6152613;23;20326;-75
2023/01/09 01:59:58;;;;;;;6.40;2.60;;;;;;;-145.18;100.00;46693.59;6152475;23;20232;-75
2023/01/09 02:02:29;;;;;;;5.93;2.50;;;;;;;-145.18;100.00;46687.75;6152542;23;20228;-75
2023/01/09 02:04:57;;;;;;;8.10;2.40;;;;;;;-145.18;100.00;46693.59;6152294;23;20307;-75
2023/01/09 02:07:22;;;;;;;5.07;2.73;;;;;;;-145.18;100.00;46695.56;6151310;23;20228;-75
2023/01/09 02:09:48;;;;;;;7.63;2.93;;;;;;;-145.18;100.00;46697.50;6152439;23;20286;-75
2023/01/09 02:12:22;;;;;;;10.77;2.77;;;;;;;-145.18;100.00;46697.50;6152874;23;20006;-75
2023/01/09 02:15:03;;;;;;;5.10;2.63;;;;;;;-145.18;100.00;46691.66;6152169;23;20009;-75
2023/01/09 02:17:36;;;;;;;8.77;2.60;;;;;;;-145.18;100.00;46691.66;6152607;23;20685;-75
2023/01/09 02:20:15;;;;;;;7.53;2.70;;;;;;;-145.18;100.00;46707.28;6152556;23;20252;-75
2023/01/09 02:23:05;;;;;;;3.77;2.50;;;;;;;-145.18;100.00;46693.59;6152943;23;20768;-75
2023/01/09 02:25:30;;;;;;;9.23;3.30;;;;;;;-145.18;100.00;46687.75;6152866;23;20223;-75
2023/01/09 02:28:26;;;;;;;8.37;3.50;;;;;;;-145.18;100.00;46691.66;6152745;23;20231;-75
2023/01/09 02:31:00;;;;;;;6.57;2.90;;;;;;;-145.18;100.00;46691.66;6152540;23;20017;-74
2023/01/09 02:33:32;;;;;;;6.63;3.10;;;;;;;-145.18;100.00;46695.56;6152651;23;20387;-75
2023/01/09 02:36:09;;;;;;;10.07;3.10;;;;;;;-145.18;100.00;46699.47;6152620;23;20227;-75
2023/01/09 02:38:51;;;;;;;7.03;2.70;;;;;;;-145.18;100.00;46685.78;6152383;23;20330;-75
2023/01/09 02:41:35;;;;;;;9.37;2.93;;;;;;;-145.18;100.00;46689.69;6152793;23;20255;-75
2023/01/09 02:44:24;;;;;;;6.07;3.07;;;;;;;-145.18;100.00;46689.69;6152150;23;20242;-75
2023/01/09 02:47:22;;;;;;;7.60;3.17;;;;;;;-145.18;100.00;46693.59;6152447;23;20266;-74
2023/01/09 02:49:54;;;;;;;7.90;2.60;;;;;;;-145.18;100.00;46687.75;6102970;23;20248;-75
2023/01/09 02:52:47;;;;;;;8.13;3.00;;;;;;;-145.18;100.00;46683.84;6151299;23;20828;-74
2023/01/09 02:55:12;;;;;;;7.47;3.03;;;;;;;-145.18;100.00;46693.59;6151793;23;20680;-75
2023/01/09 02:57:44;;;;;;;9.83;3.73;;;;;;;-145.18;100.00;46689.69;6152680;23;20240;-74
2023/01/09 03:03:29;;;;;;;11.30;3.00;;;;;;;-145.18;100.00;46683.84;6139554;23;20600;-76
2023/01/09 03:06:07;;;;;;;12.50;3.47;;;;;;;-145.18;100.00;46689.69;6135503;23;20236;-76
2023/01/09 03:08:38;;;;;;;9.20;3.00;;;;;;;-145.18;100.00;46683.84;6151624;23;20318;-75
2023/01/09 03:11:06;;;;;;;12.03;3.20;;;;;;;-145.18;100.00;46691.66;6153024;23;20251;-75
2023/01/09 03:13:49;;;;;;;10.60;3.83;;;;;;;-145.18;100.00;46693.59;6152039;23;20306;-75
2023/01/09 03:16:27;;;;;;;11.80;3.33;;;;;;;-145.18;100.00;46687.75;6152507;23;20224;-75
2023/01/09 03:18:55;;;;;;;8.57;3.27;;;;;;;-145.18;100.00;46693.59;6151883;23;20762;-75
2023/01/09 03:21:21;;;;;;;10.07;3.27;;;;;;;-145.18;100.00;46683.84;6152594;23;20262;-75
2023/01/09 03:23:59;;;;;;;8.47;3.60;;;;;;;-145.18;100.00;46689.69;6151968;23;20256;-75
2023/01/09 03:26:25;;;;;;;6.27;3.17;;;;;;;-145.18;100.00;46693.59;6152492;23;20230;-76
2023/01/09 03:28:51;;;;;;;7.23;3.20;;;;;;;-145.18;100.00;46687.75;6152051;23;20223;-75
2023/01/09 03:31:17;;;;;;;9.60;3.37;;;;;;;-145.18;100.00;46683.84;6152326;23;20228;-76
2023/01/09 03:33:42;;;;;;;7.20;3.23;;;;;;;-145.18;100.00;46685.78;6151796;23;20001;-76
2023/01/09 03:36:09;;;;;;;10.53;2.97;;;;;;;-145.18;100.00;46683.84;6152441;23;20009;-75
2023/01/09 03:38:35;;;;;;;10.60;3.40;;;;;;;-145.18;100.00;46683.84;6151926;23;20013;-76
2023/01/09 03:41:00;;;;;;;9.00;2.70;;;;;;;-145.18;100.00;46681.88;6152291;23;20232;-76
2023/01/09 03:43:26;;;;;;;9.17;2.63;;;;;;;-145.18;100.00;46679.94;6150604;23;20085;-76
2023/01/09 03:45:52;;;;;;;6.63;2.57;;;;;;;-145.18;100.00;46691.66;6152166;23;20010;-75
2023/01/09 03:48:17;;;;;;;8.47;3.93;;;;;;;-145.18;100.00;46683.84;6153931;23;20009;-76
2023/01/09 03:50:44;;;;;;;8.23;2.17;;;;;;;-145.18;100.00;46691.66;6154276;23;20013;-76
2023/01/09 03:53:12;;;;;;;7.23;2.57;;;;;;;-145.18;100.00;46691.66;6153801;23;20020;-76
2023/01/09 03:55:39;;;;;;;6.63;2.33;;;;;;;-145.18;100.00;46691.66;6154146;23;20584;-75
2023/01/09 03:58:04;;;;;;;9.33;2.20;;;;;;;-145.18;100.00;46683.84;6153970;23;20262;-75
2023/01/09 04:00:30;;;;;;;6.50;2.70;;;;;;;-145.18;100.00;46693.59;6154429;23;20581;-76
2023/01/09 04:02:55;;;;;;;13.70;3.30;;;;;;;-145.18;100.00;46695.56;6153416;23;20020;-75
2023/01/09 04:05:21;;;;;;;5.50;1.90;;;;;;;-145.18;100.00;46697.50;6154400;23;20447;-75
2023/01/09 04:07:46;;;;;;;4.40;1.70;;;;;;;-145.18;100.00;46689.69;6153420;23;20017;-75
2023/01/09 04:10:12;;;;;;;7.40;1.97;;;;;;;-145.18;100.00;46695.56;6154538;23;20010;-75
2023/01/09 04:12:37;;;;;;;9.33;2.03;;;;;;;-145.18;100.00;46685.78;6153640;23;20005;-75
2023/01/09 04:15:03;;;;;;;8.73;1.57;;;;;;;-145.18;100.00;46685.78;6154227;23;20553;-75
2023/01/09 04:17:28;;;;;;;7.13;1.87;;;;;;;-145.18;100.00;46687.75;6153394;23;20044;-75
2023/01/09 04:19:54;;;;;;;9.93;1.67;;;;;;;-145.18;100.00;46695.56;6154135;23;20009;-75
2023/01/09 04:22:19;;;;;;;10.97;1.87;;;;;;;-145.18;100.00;46691.66;6153864;23;20469;-75
2023/01/09 04:24:44;;;;;;;6.10;1.40;;;;;;;-145.18;100.00;46697.50;6127896;23;20024;-75
2023/01/09 04:27:11;;;;;;;12.13;1.70;;;;;;;-145.18;100.00;46691.66;6153845;23;20017;-75
2023/01/09 04:29:36;;;;;;;5.23;1.70;;;;;;;-145.18;100.00;46693.59;6153578;23;20457;-76
2023/01/09 04:32:02;;;;;;;9.40;1.63;;;;;;;-145.18;100.00;46693.59;6152290;23;20259;-75
2023/01/09 04:34:27;;;;;;;10.13;1.80;;;;;;;-145.18;100.00;46693.59;6153834;23;20009;-75
2023/01/09 04:36:56;;;;;;;8.70;1.53;;;;;;;-145.18;100.00;46691.66;6153306;23;20010;-75
2023/01/09 04:39:21;;;;;;;7.67;2.03;;;;;;;-145.18;100.00;46685.78;6154002;23;20446;-75
2023/01/09 04:41:49;;;;;;;8.27;1.53;;;;;;;-145.18;100.00;46695.56;6153062;23;20240;-76
2023/01/09 04:44:21;;;;;;;8.30;1.57;;;;;;;-145.18;100.00;46695.56;6152200;23;20013;-76
2023/01/09 04:46:47;;;;;;;11.57;2.03;;;;;;;-145.18;100.00;46689.69;6152990;23;20239;-75
2023/01/09 04:49:14;;;;;;;9.97;1.77;;;;;;;-145.18;100.00;46693.59;6153469;23;20239;-75
2023/01/09 04:51:39;;;;;;;4.33;1.23;;;;;;;-145.18;100.00;46695.56;6153270;23;20318;-76
2023/01/09 04:54:05;;;;;;;4.13;1.33;;;;;;;-145.18;100.00;46701.41;6154140;23;20228;-75
2023/01/09 04:56:30;;;;;;;8.23;1.50;;;;;;;-145.18;100.00;46703.38;6153605;23;20338;-75
2023/01/09 04:58:56;;;;;;;6.50;1.57;;;;;;;-145.18;100.00;46697.50;6152199;23;20014;-75
2023/01/09 05:01:22;;;;;;;7.27;1.80;;;;;;;-145.18;100.00;46697.50;6151341;23;20094;-75
2023/01/09 05:03:47;;;;;;;8.03;1.73;;;;;;;-145.18;100.00;46703.38;6155684;23;20458;-75
2023/01/09 05:06:13;;;;;;;9.90;1.80;;;;;;;-145.18;100.00;46701.41;6153106;23;20326;-75
2023/01/09 05:08:38;;;;;;;7.40;1.80;;;;;;;-145.18;100.00;46699.47;6152990;23;20088;-74
2023/01/09 05:11:04;;;;;;;9.00;1.50;;;;;;;-145.18;100.00;46709.22;6153451;23;20435;-74
2023/01/09 05:13:29;;;;;;;9.20;1.67;;;;;;;-145.18;100.00;46703.38;6153419;23;20033;-75
2023/01/09 05:15:54;;;;;;;7.13;1.50;;;;;;;-145.18;100.00;46703.38;6152943;23;20010;-74
2023/01/09 05:18:20;;;;;;;13.17;1.80;;;;;;;-145.18;100.00;46697.50;6152851;23;20019;-74
2023/01/09 05:20:45;;;;;;;8.33;2.33;;;;;;;-145.18;100.00;46707.28;6152183;23;20076;-75
2023/01/09 05:23:11;;;;;;;9.30;1.87;;;;;;;-145.18;100.00;46711.19;6153119;23;20339;-75
2023/01/09 05:25:36;;;;;;;4.40;1.47;;;;;;;-145.18;100.00;46699.47;6152950;23;20060;-75
2023/01/09 05:28:02;;;;;;;18.67;2.30;;;;;;;-145.18;100.00;46705.31;6152808;23;20014;-75
2023/01/09 05:30:27;;;;;;;9.47;1.60;;;;;;;-145.18;100.00;46701.41;6153765;23;20084;-75
2023/01/09 05:32:52;;;;;;;5.80;1.57;;;;;;;-145.18;100.00;46705.31;6152963;23;20041;-75
2023/01/09 05:35:19;;;;;;;8.43;1.57;;;;;;;-145.18;100.00;46697.50;6151936;23;20005;-75
2023/01/09 05:37:45;;;;;;;9.53;2.30;;;;;;;-145.18;100.00;46713.13;6151308;23;20014;-75
2023/01/09 05:40:11;;;;;;;8.43;2.23;;;;;;;-145.18;100.00;46699.47;6151398;23;20239;-75
2023/01/09 05:42:36;;;;;;;6.07;1.60;;;;;;;-145.18;100.00;46701.41;6152117;23;20041;-77
2023/01/09 05:45:02;;;;;;;12.87;2.67;;;;;;;-145.18;100.00;46697.50;6148368;23;20018;-77
2023/01/09 05:47:27;;;;;;;7.63;1.60;;;;;;;-145.18;100.00;46705.31;6152309;23;20335;-77
2023/01/09 05:49:55;;;;;;;8.57;2.27;;;;;;;-145.18;100.00;46697.50;6152774;23;20016;-76
2023/01/09 05:52:21;;;;;;;9.80;2.03;;;;;;;-145.18;100.00;46701.41;6152387;23;20546;-76
2023/01/09 05:54:46;;;;;;;12.27;1.80;;;;;;;-145.18;100.00;46709.22;6152785;23;20230;-76
2023/01/09 05:57:12;;;;;;;10.73;1.70;;;;;;;-145.18;100.00;46707.28;6151879;23;20327;-76
2023/01/09 05:59:37;;;;;;;11.73;2.57;;;;;;;-145.18;100.00;46713.13;6150736;23;20358;-76
2023/01/09 06:02:03;;;;;;;12.20;2.47;;;;;;;-145.18;100.00;46707.28;6150529;23;20664;-77
2023/01/09 06:04:28;;;;;;;8.90;1.87;;;;;;;-145.18;100.00;46709.22;6150946;23;20018;-78
2023/01/09 06:06:54;;;;;;;9.20;1.83;;;;;;;-145.18;100.00;46707.28;6150861;23;20088;-77
2023/01/09 06:09:20;;;;;;;12.53;2.63;;;;;;;-145.18;100.00;46709.22;6150922;23;20489;-77
2023/01/09 06:11:45;;;;;;;13.60;3.20;;;;;;;-145.18;100.00;46715.09;6150248;23;20232;-77
2023/01/09 06:14:10;;;;;;;7.63;2.20;;;;;;;-145.18;100.00;46701.41;6153043;23;20443;-77
2023/01/09 06:16:36;;;;;;;10.73;1.97;;;;;;;-145.18;100.00;46713.13;6152573;23;20013;-77
2023/01/09 06:19:01;;;;;;;10.73;1.80;;;;;;;-145.18;100.00;46709.22;6152866;23;20016;-78
2023/01/09 06:21:28;;;;;;;7.60;2.00;;;;;;;-145.18;100.00;46705.31;6152694;23;20092;-78
2023/01/09 06:23:55;;;;;;;8.10;2.17;;;;;;;-145.18;100.00;46715.09;6152378;23;20009;-78
2023/01/09 06:26:20;;;;;;;13.97;1.93;;;;;;;-145.18;100.00;46707.28;6152667;23;20224;-79
2023/01/09 06:28:45;;;;;;;14.93;1.90;;;;;;;-145.18;100.00;46707.28;6152608;23;20267;-78
2023/01/09 06:31:12;;;;;;;10.43;2.37;;;;;;;-145.18;100.00;46719.00;6153042;23;20006;-78
2023/01/09 06:33:37;;;;;;;12.40;2.60;;;;;;;-145.18;100.00;46717.03;6152095;23;20320;-78
2023/01/09 06:36:03;;;;;;;17.83;2.63;;;;;;;-145.18;100.00;46717.03;6152817;23;20235;-78
2023/01/09 06:38:28;;;;;;;10.90;3.13;;;;;;;-145.18;100.00;46713.13;6150987;23;20024;-78
2023/01/09 06:40:54;;;;;;;11.30;2.17;;;;;;;-145.18;100.00;46713.13;6151286;23;20037;-78
2023/01/09 06:43:19;;;;;;;7.90;2.50;;;;;;;-145.18;100.00;46713.13;6152469;23;20013;-78
2023/01/09 06:45:44;;;;;;;12.50;3.37;;;;;;;-145.18;100.00;46705.31;6152353;23;20041;-79
2023/01/09 06:48:11;;;;;;;11.90;3.33;;;;;;;-145.18;100.00;46701.41;6152653;23;20443;-78
2023/01/09 06:50:36;;;;;;;10.83;2.73;;;;;;;-145.18;100.00;46715.09;6151395;23;20010;-79
2023/01/09 06:53:02;;;;;;;19.00;3.07;;;;;;;-145.18;100.00;46707.28;6149596;23;20796;-79
2023/01/09 06:55:27;;;;;;;12.50;2.90;;;;;;;-145.18;100.00;46711.19;6151424;23;20006;-80
2023/01/09 06:57:53;;;;;;;15.00;3.80;;;;;;;-145.18;100.00;46701.41;6150977;23;20065;-79
2023/01/09 07:00:18;;;;;;;12.60;3.27;;;;;;;-145.18;100.00;46699.47;6151529;23;20044;-79
2023/01/09 07:02:44;;;;;;;10.20;3.20;;;;;;;-145.18;100.00;46703.38;6150706;23;20030;-79
2023/01/09 07:05:10;;;;;;;6.50;2.33;;;;;;;-145.18;100.00;46693.59;6149978;23;20009;-80
2023/01/09 07:07:37;;;;;;;7.43;3.07;;;;;;;-145.18;100.00;46697.50;6141563;23;20010;-80
2023/01/09 07:10:02;;;;;;;10.27;3.40;;;;;;;-145.18;100.00;46697.50;6151458;23;20298;-79
2023/01/09 07:12:28;;;;;;;8.13;2.83;;;;;;;-145.18;100.00;46693.59;6151100;23;20236;-80
2023/01/09 07:14:53;;;;;;;12.43;4.00;;;;;;;-145.18;100.00;46703.38;6145856;23;20020;-81
2023/01/09 07:17:19;;;;;;;9.10;3.33;;;;;;;-145.18;100.00;46699.47;6145710;23;20005;-81
2023/01/09 07:19:44;;;;;;;10.03;3.63;;;;;;;-145.18;100.00;46695.56;6152069;23;20089;-82
2023/01/09 07:22:09;;;;;;;7.87;3.33;;;;;;;-145.18;100.00;46699.47;6152053;23;20009;-82
2023/01/09 07:24:35;;;;;;;13.67;4.07;;;;;;;-145.18;100.00;46693.59;6151695;23;20401;-82
2023/01/09 07:27:01;;;;;;;5.97;3.07;;;;;;;-145.18;100.00;46691.66;6152647;23;20316;-82
2023/01/09 07:29:26;;;;;;;7.37;2.80;;;;;;;-145.18;100.00;46685.78;6151869;23;20016;-83
2023/01/09 07:31:52;;;;;;;9.67;3.27;;;;;;;-145.18;100.00;46691.66;6150538;23;20322;-85
2023/01/09 07:34:18;;;;;;;8.00;2.57;;;;;;;-145.18;100.00;46695.56;6150580;23;20398;-85
2023/01/09 07:36:45;;;;;;;7.67;2.00;;;;;;;-145.18;100.00;46697.50;6152205;23;20014;-85
2023/01/09 07:39:12;;;;;;;4.23;1.70;;;;;;;-145.18;100.00;46691.66;6151580;23;20287;-86
2023/01/09 07:41:38;;;;;;;4.83;1.70;;;;;;;-145.18;100.00;46693.59;6151776;23;20310;-85
2023/01/09 07:44:03;;;;;;;5.70;2.03;;;;;;;-145.18;100.00;46695.56;6150339;23;20236;-86
2023/01/09 07:46:29;;;;;;;5.03;1.77;;;;;;;-145.18;100.00;46685.78;6151381;23;20461;-86
2023/01/09 07:48:54;;;;;;;4.97;2.20;;;;;;;-145.18;100.00;46687.75;6151228;23;20013;-86
2023/01/09 07:51:19;;;;;;;4.87;2.17;;;;;;;-145.18;100.00;46689.69;6152189;23;20016;-87
2023/01/09 07:53:45;;;;;;;6.80;2.57;;;;;;;-145.18;100.00;46693.59;6151592;23;20379;-86
2023/01/09 07:56:11;;;;;;;4.50;1.90;;;;;;;-145.18;100.00;46683.84;6144968;23;20036;-87
2023/01/09 07:58:37;;;;;;;4.43;1.67;;;;;;;-145.18;100.00;46689.69;6151517;23;20085;-87
2023/01/09 08:01:03;;;;;;;3.03;1.63;;;;;;;-145.18;100.00;46689.69;6152475;23;20009;-87
2023/01/09 08:03:28;;;;;;;5.83;1.33;;;;;;;-145.18;100.00;46691.66;6151370;23;20255;-86
2023/01/09 08:05:54;;;;;;;8.20;1.40;;;;;;;-145.18;100.00;46697.50;6151577;23;20236;-87
2023/01/09 08:08:19;;;;;;;6.77;1.93;;;;;;;-145.18;100.00;46687.75;6151912;23;20017;-87
2023/01/09 08:10:45;;;;;;;6.10;1.17;;;;;;;-145.18;100.00;46681.88;6152279;23;20177;-87
2023/01/09 08:13:10;;;;;;;4.20;1.00;;;;;;;-145.18;100.00;46691.66;6151993;23;20014;-87
2023/01/09 08:15:35;;;;;;;6.57;1.30;;;;;;;-145.18;100.00;46687.75;6151337;23;20010;-86
2023/01/09 08:18:01;;;;;;;6.33;1.60;;;;;;;-145.18;100.00;46687.75;6151513;23;20045;-88
2023/01/09 08:20:26;;;;;;;3.97;1.47;;;;;;;-145.18;100.00;46693.59;6151889;23;20061;-87
2023/01/09 08:22:53;;;;;;;6.23;2.30;;;;;;;-145.18;100.00;46683.84;6151693;23;20033;-87
2023/01/09 08:25:19;;;;;;;4.80;2.47;;;;;;;-145.18;100.00;46695.56;6151908;23;20015;-88
2023/01/09 08:27:45;;;;;;;11.13;2.70;;;;;;;-145.18;100.00;46683.84;6151378;23;20286;-87
2023/01/09 08:30:11;;;;;;;5.17;2.30;;;;;;;-145.18;100.00;46693.59;6151496;23;20240;-87
2023/01/09 08:32:37;;;;;;;8.70;2.87;;;;;;;-145.18;100.00;46687.75;6151359;23;20440;-86
2023/01/09 08:35:03;;;;;;;9.53;2.53;;;;;;;-145.18;100.00;46689.69;6153506;23;20242;-87
2023/01/09 08:37:28;;;;;;;5.90;1.87;;;;;;;-145.18;100.00;46693.59;6153478;23;20005;-86
2023/01/09 08:39:55;;;;;;;7.70;2.30;;;;;;;-145.18;100.00;46709.22;6153535;23;20243;-86
2023/01/09 08:47:49;;;;;;;10.00;2.00;;;;;;;-145.18;100.00;46693.59;6153459;23;20282;-84
2023/01/09 08:50:14;;;;;;;6.30;1.90;;;;;;;-145.18;100.00;46703.38;6127686;23;20243;-85
2023/01/09 08:52:40;;;;;;;7.20;1.90;;;;;;;-145.18;100.00;46705.31;6153495;23;20005;-85
2023/01/09 08:55:05;;;;;;;10.90;2.17;;;;;;;-145.18;100.00;46689.69;6150170;23;20451;-87
2023/01/09 08:57:31;;;;;;;8.13;2.50;;;;;;;-145.18;100.00;46689.69;6152192;23;20009;-85
2023/01/09 08:59:56;;;;;;;12.00;2.23;;;;;;;-145.18;100.00;46703.38;6151475;23;20021;-84
2023/01/09 09:02:22;;;;;;;8.27;2.50;;;;;;;-145.18;100.00;46705.31;6153262;23;20454;-85
2023/01/09 09:04:51;;;;;;;12.67;2.27;;;;;;;-145.18;100.00;46699.47;6153381;23;20063;-84
2023/01/09 09:07:20;;;;;;;12.40;2.00;;;;;;;-145.18;100.00;46693.59;6153555;23;20033;-84
2023/01/09 09:09:45;;;;;;;9.67;2.50;;;;;;;-145.18;100.00;46697.50;6152858;23;20255;-84
2023/01/09 09:12:10;;;;;;;7.77;2.10;;;;;;;-145.18;100.00;46699.47;6153675;23;20688;-84
2023/01/09 09:17:20;;;;;;;14.43;2.37;;;;;;;-145.18;100.00;46701.41;6153214;23;20056;-84
2023/01/09 09:19:45;;;;;;;12.73;1.97;;;;;;;-145.18;100.00;46705.31;6152887;23;20291;-84
2023/01/09 09:22:10;;;;;;;9.37;1.97;;;;;;;-145.18;100.00;46705.31;6151954;23;20010;-84
2023/01/09 09:24:36;;;;;;;10.23;1.33;;;;;;;-145.18;100.00;46701.41;6152864;23;20411;-84
2023/01/09 09:27:02;;;;;;;24.80;3.73;;;;;;;-145.18;100.00;46705.31;6153876;23;20032;-85
2023/01/09 09:29:27;;;;;;;14.20;2.03;;;;;;;-145.18;100.00;46705.31;6153245;23;20104;-84
2023/01/09 09:31:52;;;;;;;10.10;1.50;;;;;;;-145.18;100.00;46699.47;6152609;23;20013;-84
2023/01/09 09:34:18;;;;;;;6.47;1.00;;;;;;;-145.18;100.00;46699.47;6153240;23;20014;-83
2023/01/09 09:36:43;;;;;;;12.97;1.40;;;;;;;-145.18;100.00;46697.50;6153379;23;20006;-84
2023/01/09 09:39:08;;;;;;;7.57;1.00;;;;;;;-145.18;100.00;46701.41;6152914;23;20021;-84
2023/01/09 09:45:50;;;;;;;6.33;0.90;;;;;;;-145.18;100.00;46701.41;6090162;23;20350;-83
2023/01/09 09:48:28;;;;;;;9.03;1.40;;;;;;;-145.18;100.00;46701.41;6062580;23;20790;-82
2023/01/09 09:51:08;;;;;;;12.33;1.60;;;;;;;-145.18;100.00;46705.31;6141229;23;20236;-81
2023/01/09 09:53:48;;;;;;;16.23;2.43;;;;;;;-145.18;100.00;46703.38;6152823;23;20716;-81
2023/01/09 09:56:17;;;;;;;11.13;1.60;;;;;;;-145.18;100.00;46705.31;6152499;23;20227;-80
2023/01/09 09:59:02;;;;;;;10.57;2.33;;;;;;;-145.18;100.00;46701.41;6152612;23;20254;-81
2023/01/09 10:01:43;;;;;;;10.97;2.07;;;;;;;-145.18;100.00;46701.41;6153309;23;20306;-80
2023/01/09 10:04:15;;;;;;;10.93;2.20;;;;;;;-145.18;100.00;46699.47;6152653;23;20321;-80
2023/01/09 10:06:47;;;;;;;10.07;2.30;;;;;;;-145.18;100.00;46701.41;6152185;23;20224;-80
2023/01/09 10:09:36;;;;;;;8.97;1.97;;;;;;;-145.18;100.00;46699.47;6126566;23;20240;-80
2023/01/09 10:12:23;;;;;;;14.57;2.47;;;;;;;-145.18;100.00;46695.56;6153041;23;20223;-80
2023/01/09 10:14:48;;;;;;;10.07;2.90;;;;;;;-145.18;100.00;46693.59;6152595;23;20219;-80
2023/01/09 10:17:26;;;;;;;9.77;2.97;;;;;;;-145.18;100.00;46691.66;6153114;23;20240;-80
2023/01/09 10:20:09;;;;;;;15.53;2.80;;;;;;;-145.18;100.00;46687.75;6152450;23;20045;-80
2023/01/09 10:23:19;;;;;;;7.57;2.13;;;;;;;-145.18;100.00;46687.75;6152823;23;20676;-80
2023/01/09 10:25:55;;;;;;;13.67;2.50;;;;;;;-145.18;100.00;46687.75;6146725;23;20286;-80
2023/01/09 10:28:56;;;;;;;6.03;2.05;;;;;;;-145.18;100.00;46689.69;6125541;23;20286;-80
2023/01/09 10:31:33;;;;;;;10.50;2.87;;;;;;;-145.18;100.00;46689.69;6152998;23;20393;-80
2023/01/09 10:34:40;;;;;;;9.17;2.37;;;;;;;-145.18;100.00;46687.75;6152474;23;20356;-80
2023/01/09 10:37:23;;;;;;;10.70;3.30;;;;;;;-145.18;100.00;46689.69;6153243;23;20442;-79
2023/01/09 10:39:58;;;;;;;11.30;2.10;;;;;;;-145.18;100.00;46691.66;6152249;23;20013;-79
2023/01/09 10:42:48;;;;;;;14.20;1.97;;;;;;;-145.18;100.00;46689.69;6152351;23;20226;-79
2023/01/09 10:45:27;;;;;;;10.17;1.20;;;;;;;-145.18;100.00;46689.69;6152643;23;20283;-79
2023/01/09 10:48:00;;;;;;;16.60;2.10;;;;;;;-145.18;100.00;46689.69;6152439;23;20231;-80
2023/01/09 10:50:39;;;;;;;15.60;4.67;;;;;;;-145.18;100.00;46689.69;6152704;23;20239;-80
2023/01/09 10:53:17;;;;;;;12.13;2.83;;;;;;;-145.18;100.00;46691.66;6152187;23;20347;-79
2023/01/09 10:55:47;;;;;;;13.50;2.50;;;;;;;-145.18;100.00;46687.75;6152377;23;20224;-79
2023/01/09 10:58:20;;;;;;;10.30;2.23;;;;;;;-145.18;100.00;46691.66;6152250;23;20770;-79
2023/01/09 11:00:47;;;;;;;6.83;1.80;;;;;;;-145.18;100.00;46683.84;6152558;23;20231;-79
2023/01/09 11:03:23;;;;;;;10.93;2.40;;;;;;;-145.18;100.00;46683.84;6152331;23;20263;-79
2023/01/09 11:05:51;;;;;;;14.60;2.90;;;;;;;-145.18;100.00;46685.78;6152300;23;20227;-79
2023/01/09 11:08:29;;;;;;;15.87;2.77;;;;;;;-145.18;100.00;46689.69;6152378;23;20231;-79
2023/01/09 11:10:58;;;;;;;12.70;2.40;;;;;;;-145.18;100.00;46687.75;6152341;23;20262;-80
2023/01/09 11:13:32;;;;;;;12.03;2.00;;;;;;;-145.18;100.00;46685.78;6152442;23;20693;-79
2023/01/09 11:15:59;;;;;;;10.13;2.00;;;;;;;-145.18;100.00;46689.69;6152624;23;20239;-79
2023/01/09 11:18:25;;;;;;;16.40;2.47;;;;;;;-145.18;100.00;46691.66;6151993;23;20251;-79
2023/01/09 11:20:51;;;;;;;12.90;1.97;;;;;;;-145.18;100.00;46691.66;6152292;23;20231;-79
2023/01/09 11:23:23;;;;;;;34.00;3.17;;;;;;;-145.18;100.00;46693.59;6152263;23;20013;-79
2023/01/09 11:25:53;;;;;;;16.80;1.83;;;;;;;-145.18;100.00;46695.56;6152232;23;20262;-79
2023/01/09 11:28:19;;;;;;;18.83;2.70;;;;;;;-145.18;100.00;46699.47;6146459;23;21082;-79
2023/01/09 11:31:01;;;;;;;13.10;1.53;;;;;;;-145.18;100.00;46699.47;6149834;23;20232;-78
2023/01/09 11:33:48;;;;;;;11.67;2.80;;;;;;;-145.18;100.00;46697.50;6150588;23;20076;-79